Главная страница
METAR-TAF:

METAR-TAF

Аэропорты :

Ставрополь, Россия

широта: 45-20N, долгота: 042-00E, высота над уровнем моря: м

Текущие метеонаблюдения

Эта сводка был подготовлена 30 минут назад, в 06:30 UTC
Ветер 12 Узел от восточно-юго-восточный
Температура 23°C
Влажность 65%
Давление 1014 hPa
Видимость 10 км и более
Нет облачности ниже 1500 м, и нет кучево-дождевой облачности

METAR: URMT 270630Z 12006MPS CAVOK 23/16 Q1014 R07/010070 NOSIG RMK QFE720

Время: 10:00 (07:00 UTC)

Прогноз

Эта сводка был подготовлена 2 часа и 0 минут назад, в 05:00 UTC
Прогноз действительный с 27-го 06 UTC до 27-го 15 UTC
Ветер 10 Узел от юго-восточный с порывами до 21 Узел
Видимость 10 км и более
Отдельные облака на высоте 2000 фута

TAF: URMT 270500Z 2706/2715 13005G11MPS 9999 SCT020

Метеонаблюдения и прогнозы для более 4000 аэропортов (сводки METAR и TAF).

Имеющиеся станции представлены на карте желтыми и красными точками.

Чтобы увидеть название станции, наведите на нее мышь.

Затем щелкните, чтобы увидеть метеонаблюдения и метеопрогнозы.

Управление картой: чтобы увеличить масштаб, щелкните зеленые кнопки с черным крестиком; чтобы уменьшить масштаб, щелкните зеленую кнопку с тире; для просмотра соседних карт щелкайте зеленые стрелки.


METAR-TAF: